Terminal Aerodrome Forecast
Issued by NWS

Home | Current Version | Previous Version | Text Only | Print | Product List | Glossary On
Versions: 1 2 3 4 5 6 7 8 9 10 11 12 13 14 15 16 17 18 19
000
FTUS45 KBYZ 232320
TAFLVM
TAF
KLVM 232320Z 2400/2424 31011KT P6SM VCSH SCT045 OVC060
     FM240300 VRB06KT P6SM BKN150
     FM241000 23011G20KT P6SM FEW200
     FM241600 23017G30KT P6SM FEW200=

USA.gov is the U.S. government's official web portal to all federal, state and local government web resources and services.